Vizconde de Eza — EAXB — position and weather

sailwx.info

Track history (hours):
 
Tides and Currents Weather Stations Pressure Air Temp Water Temp Dewpoint Dewpoint Depression Visibility Wind Speed Wind Dir Waves Ship Positions

Oceanographic research ship Vizconde de Eza (Spain)

Detailed information on ship capabilities available from University of Delaware's Ocean Information Center.

Last reported at 2017-Apr-13 06:39 UTC. Time now 2017-Apr-28 23:51 UTC.
Position N 43°53' W 006°19'.
Warning: this ship's position is 15 days out of date.

Length 53 m; draft 6.2 m.

Type: Other ship. MMSI: 224582000.

Date/timePositionNaut miles runAvg speedWind from/ knotsBaromVisibWave heightAir tempDewpointWater temp
2017-Apr-13 06:39N 43°53' W 006°19'210.7
2017-Apr-13 06:26N 43°53' W 006°16'510.6
2017-Apr-13 06:00N 43°54' W 006°09'510.7
2017-Apr-13 05:29N 43°54' W 006°02'610.8
2017-Apr-13 04:59N 43°55' W 005°54'510.8
2017-Apr-13 04:30N 43°56' W 005°47'510.8
2017-Apr-13 04:00N 43°57' W 005°40'610.9
2017-Apr-13 03:29N 43°57' W 005°32'510.7
2017-Apr-13 03:00N 43°58' W 005°25'610.6
2017-Apr-13 02:29N 43°59' W 005°18'610.7
2017-Apr-13 01:57N 43°60' W 005°10'510.8
2017-Apr-13 01:30N 44°00' W 005°03'710.3
2017-Apr-13 00:49N 44°01' W 004°53'7210.8
2017-Apr-12 18:11N 44°08' W 003°14'210.7
2017-Apr-12 17:59N 44°08' W 003°11'511.0
2017-Apr-12 17:30N 44°09' W 003°04'611.1
2017-Apr-12 17:00N 44°10' W 002°56'611.2
2017-Apr-12 16:31N 44°10' W 002°48'611.1
2017-Apr-12 16:00N 44°11' W 002°41'611.2
2017-Apr-12 15:28N 44°11' W 002°32'510.7
2017-Apr-12 15:00N 44°12' W 002°26'510.8
2017-Apr-12 14:30N 44°12' W 002°18'7 6.8
2017-Apr-12 13:30N 44°13' W 002°09'3 5.9
2017-Apr-12 13:00N 44°13' W 002°04'2 4.5
2017-Apr-12 12:30N 44°13' W 002°01'1 1.7
2017-Apr-12 12:00N 44°13' W 002°00'3 6.1
2017-Apr-12 11:30N 44°13' W 001°56'2 4.8
2017-Apr-12 11:00N 44°13' W 001°52'1 1.1
2017-Apr-12 10:30N 44°13' W 001°52'6 3.6
2017-Apr-12 08:49N 44°13' W 001°43'2 5.3
2017-Apr-12 08:29N 44°13' W 001°41'4 4.6
2017-Apr-12 07:32N 44°13' W 001°35'0 0.1
2017-Apr-12 07:26N 44°13' W 001°35'3 6.8
2017-Apr-12 06:59N 44°13' W 001°30'3 5.7
2017-Apr-12 06:28N 44°13' W 001°26'2 4.6
2017-Apr-12 05:59N 44°13' W 001°23'2 3.2
2017-Apr-12 05:30N 44°14' W 001°22'510.1
2017-Apr-12 05:00N 44°19' W 001°22'510.1
2017-Apr-12 04:30N 44°24' W 001°22'5 9.1
2017-Apr-12 04:00N 44°29' W 001°22'3 5.1
2017-Apr-12 03:30N 44°29' W 001°26'1 1.2
2017-Apr-12 03:00N 44°29' W 001°26'3 5.7
2017-Apr-12 02:31N 44°29' W 001°30'3 5.2
2017-Apr-12 02:00N 44°29' W 001°34'1 2.5
2017-Apr-12 01:30N 44°29' W 001°36'2 4.1
2017-Apr-12 01:00N 44°29' W 001°39'3 6.3
2017-Apr-12 00:30N 44°29' W 001°43'1 1.9
2017-Apr-12 00:00N 44°29' W 001°44'2 3.9
2017-Apr-11 23:31N 44°29' W 001°47'3 5.6
2017-Apr-11 23:01N 44°29' W 001°51'1 1.5
2017-Apr-11 22:30N 44°29' W 001°52'3 5.1
2017-Apr-11 22:00N 44°29' W 001°56'3 6.2
2017-Apr-11 21:28N 44°29' W 002°00'1 1.2
2017-Apr-11 21:00N 44°29' W 002°01'2 4.3
2017-Apr-11 20:31N 44°29' W 002°04'3 6.4
2017-Apr-11 20:00N 44°29' W 002°09'0 0.3
2017-Apr-11 19:31N 44°29' W 002°09'3 5.6
2017-Apr-11 19:00N 44°31' W 002°10'510.3
2017-Apr-11 18:30N 44°36' W 002°13'510.4
2017-Apr-11 18:00N 44°41' W 002°16'510.4
2017-Apr-11 17:30N 44°46' W 002°19'510.4
2017-Apr-11 17:00N 44°50' W 002°23'510.3
2017-Apr-11 16:28N 44°55' W 002°26'510.2
2017-Apr-11 16:00N 44°60' W 002°29'1 2.9
2017-Apr-11 15:30N 45°01' W 002°29'3 4.6
2017-Apr-11 14:54N 45°01' W 002°25'2 5.9
2017-Apr-11 14:30N 45°01' W 002°22'4 3.7
2017-Apr-11 13:29N 45°01' W 002°17'3 5.7
2017-Apr-11 13:00N 45°01' W 002°13'1 1.8
2017-Apr-11 12:26N 45°01' W 002°11'4 5.1
2017-Apr-11 11:37N 45°01' W 002°06'1 9.0
2017-Apr-11 11:30N 45°01' W 002°04'13 4.1
2017-Apr-11 08:25N 45°01' W 001°46'2 5.6
2017-Apr-11 08:00N 45°01' W 001°43'3 5.9
2017-Apr-11 07:30N 45°01' W 001°39'3 6.0
2017-Apr-11 07:00N 45°01' W 001°35'2 5.0
2017-Apr-11 06:30N 45°01' W 001°31'3 5.1
2017-Apr-11 05:58N 45°01' W 001°27'2 3.8
2017-Apr-11 05:30N 45°01' W 001°25'2 3.7
2017-Apr-11 05:00N 45°00' W 001°22'5 9.5
2017-Apr-11 04:31N 44°56' W 001°22'3 5.5
2017-Apr-11 04:00N 44°53' W 001°22'3 5.7
2017-Apr-11 03:30N 44°53' W 001°26'2 3.5
2017-Apr-11 03:00N 44°53' W 001°29'2 3.2
2017-Apr-11 02:29N 44°53' W 001°31'2 5.2
2017-Apr-11 02:00N 44°53' W 001°35'3 5.9
2017-Apr-11 01:30N 44°53' W 001°39'2 4.1
2017-Apr-11 00:59N 44°53' W 001°42'1 2.2
2017-Apr-11 00:30N 44°53' W 001°43'3 5.5
2017-Apr-11 00:00N 44°53' W 001°47'3 5.0
2017-Apr-10 23:25N 44°53' W 001°51'3 4.7
2017-Apr-10 22:48N 44°53' W 001°55'5 4.1
2017-Apr-10 21:34N 44°53' W 002°03'1 8.5
2017-Apr-10 21:27N 44°53' W 002°04'3 4.3
2017-Apr-10 20:44N 44°53' W 002°08'0 0.5
2017-Apr-10 20:29N 44°53' W 002°09'3 6.1
2017-Apr-10 20:00N 44°53' W 002°13'2 3.5
2017-Apr-10 19:25N 44°53' W 002°16'1 2.4
2017-Apr-10 19:00N 44°53' W 002°17'4 7.7
2017-Apr-10 18:30N 44°50' W 002°14'5 9.5
2017-Apr-10 18:00N 44°46' W 002°10'5 9.0
2017-Apr-10 17:30N 44°42' W 002°08'5 9.5
2017-Apr-10 17:00N 44°37' W 002°08'0 0.7
2017-Apr-10 16:31N 44°37' W 002°08'3 6.3
2017-Apr-10 16:00N 44°37' W 002°04'2 4.7
2017-Apr-10 15:30N 44°37' W 002°01'1 1.6
2017-Apr-10 15:00N 44°37' W 001°60'6 4.5
2017-Apr-10 13:44N 44°37' W 001°51'1 5.1
2017-Apr-10 13:30N 44°37' W 001°50'2 3.6
2017-Apr-10 13:00N 44°37' W 001°47'3 5.3
2017-Apr-10 12:26N 44°37' W 001°43'5 4.6
2017-Apr-10 11:21N 44°37' W 001°36'1 3.1
2017-Apr-10 11:00N 44°37' W 001°35'3 6.1
2017-Apr-10 10:30N 44°37' W 001°30'2 4.9
2017-Apr-10 10:00N 44°37' W 001°27'2 3.7
2017-Apr-10 09:30N 44°37' W 001°24'2 3.2
2017-Apr-10 09:00N 44°37' W 001°22'510.1
2017-Apr-10 08:30N 44°31' W 001°22'510.1
2017-Apr-10 08:00N 44°26' W 001°22'510.0
2017-Apr-10 07:30N 44°21' W 001°22'2 4.0
2017-Apr-10 07:00N 44°21' W 001°25'2 4.9
2017-Apr-10 06:30N 44°21' W 001°28'2 4.4
2017-Apr-10 06:00N 44°21' W 001°31'2 5.0
2017-Apr-10 05:31N 44°21' W 001°35'3 5.8
2017-Apr-10 05:00N 44°21' W 001°39'2 3.1
2017-Apr-10 04:30N 44°21' W 001°41'2 3.2
2017-Apr-10 04:00N 44°21' W 001°43'3 5.7
2017-Apr-10 03:30N 44°21' W 001°47'3 5.9
2017-Apr-10 03:00N 44°21' W 001°51'2 3.3
2017-Apr-10 02:31N 44°21' W 001°54'1 3.0
2017-Apr-10 02:00N 44°21' W 001°56'3 6.0
2017-Apr-10 01:31N 44°21' W 001°60'3 5.2
2017-Apr-10 01:01N 44°21' W 002°04'1 1.3
2017-Apr-10 00:31N 44°21' W 002°04'3 5.6
2017-Apr-10 00:01N 44°21' W 002°08'3 5.4
2017-Apr-09 23:30N 44°21' W 002°12'0 0.9
2017-Apr-09 23:01N 44°21' W 002°12'510.3
2017-Apr-09 22:30N 44°15' W 002°12'510.5
2017-Apr-09 22:01N 44°10' W 002°12'510.3
2017-Apr-09 21:31N 44°05' W 002°13'0 1.0
2017-Apr-09 21:00N 44°05' W 002°12'510.7
2017-Apr-09 20:31N 44°05' W 002°05'1 2.3
2017-Apr-09 20:01N 44°05' W 002°03'2 4.0
2017-Apr-09 19:30N 44°05' W 002°00'3 6.0
2017-Apr-09 19:01N 44°05' W 001°56'3 5.7
2017-Apr-09 18:30N 44°05' W 001°52'2 4.8
2017-Apr-09 18:01N 44°05' W 001°49'1 2.8
2017-Apr-09 17:31N 44°05' W 001°47'2 4.9
2017-Apr-09 17:00N 44°05' W 001°43'3 6.3
2017-Apr-09 16:30N 44°05' W 001°39'2 5.0
2017-Apr-09 16:01N 44°05' W 001°36'2 3.6
2017-Apr-09 15:30N 44°05' W 001°33'2 3.8
2017-Apr-09 15:01N 44°05' W 001°30'6 5.8
2017-Apr-09 14:00N 44°05' W 001°22'4 7.7
2017-Apr-09 13:30N 44°02' W 001°26'510.2
2017-Apr-09 13:00N 43°58' W 001°30'510.4
2017-Apr-09 12:30N 43°54' W 001°35'3 5.6
2017-Apr-09 12:01N 43°52' W 001°38'3 6.2
2017-Apr-09 11:30N 43°49' W 001°38'2 3.4
2017-Apr-09 11:00N 43°47' W 001°37'1 2.6
2017-Apr-09 10:30N 43°46' W 001°38'3 6.0
2017-Apr-09 10:00N 43°43' W 001°38'3 5.9
2017-Apr-09 09:30N 43°40' W 001°38'2 3.1
2017-Apr-09 09:00N 43°38' W 001°38'2 4.1
2017-Apr-09 08:30N 43°36' W 001°37'2 4.7
2017-Apr-09 08:00N 43°34' W 001°38'3 6.0
2017-Apr-09 07:31N 43°31' W 001°38'3 6.1
2017-Apr-09 07:00N 43°28' W 001°38'2 3.5
2017-Apr-09 06:31N 43°26' W 001°38'4 7.4
2017-Apr-09 06:00N 43°26' W 001°43'5 8.9
2017-Apr-09 05:30N 43°25' W 001°49'2 4.2
2017-Apr-09 05:00N 43°27' W 001°49'1 2.8
2017-Apr-09 04:30N 43°28' W 001°49'3 4.6
2017-Apr-09 03:58N 43°31' W 001°49'3 6.1
2017-Apr-09 03:28N 43°34' W 001°49'1 2.9
2017-Apr-09 03:01N 43°35' W 001°49'2 3.3
2017-Apr-09 02:30N 43°37' W 001°49'3 5.9
2017-Apr-09 02:00N 43°40' W 001°49'1 2.6
2017-Apr-09 01:31N 43°41' W 001°49'2 3.6
2017-Apr-09 01:01N 43°43' W 001°49'3 5.4
2017-Apr-09 00:28N 43°46' W 001°49'3 3.0
2017-Apr-08 23:24N 43°49' W 001°49'42 2.6
2017-Apr-08 07:18N 43°26' W 002°37'1 4.1
2017-Apr-08 06:58N 43°26' W 002°39'2 0.7
2017-Apr-08 03:44N 43°27' W 002°42'1 4.0
2017-Apr-08 03:23N 43°27' W 002°40'2 3.9
2017-Apr-08 02:59N 43°26' W 002°38'25 3.8
2017-Apr-07 20:29N 43°24' W 002°05'2 4.3
2017-Apr-07 20:00N 43°23' W 002°02'1 2.9
2017-Apr-07 19:30N 43°23' W 001°60'0 0.2
2017-Apr-07 19:00N 43°23' W 001°60'1 2.9
2017-Apr-07 18:30N 43°22' W 002°02'2 3.7
2017-Apr-07 18:00N 43°21' W 002°04'3 6.7
2017-Apr-07 17:30N 43°23' W 001°60'1 2.5
2017-Apr-07 17:00N 43°22' W 002°01'2 4.2
2017-Apr-07 16:28N 43°21' W 002°04'3 6.1
2017-Apr-07 15:56N 43°20' W 002°00'1 2.6
2017-Apr-07 15:31N 43°21' W 002°00'1 2.8
2017-Apr-07 15:00N 43°23' W 002°00'8 4.7
2017-Apr-07 13:19N 43°31' W 002°00'  
Track history (hours):
 
Tides and Currents Weather Stations Pressure Air Temp Water Temp Dewpoint Dewpoint Depression Visibility Wind Speed Wind Dir Waves Ship Positions

Oceanographic research ship Vizconde de Eza (Spain)

Detailed information on ship capabilities available from University of Delaware's Ocean Information Center.

Last reported at 2017-Apr-13 06:39 UTC. Time now 2017-Apr-28 23:51 UTC.
Position N 43°53' W 006°19'.
Warning: this ship's position is 15 days out of date.

Length 53 m; draft 6.2 m.

Type: Other ship. MMSI: 224582000.

Date/timePositionNaut miles runAvg speedWind from/ knotsBaromVisibWave heightAir tempDewpointWater temp
2017-Apr-13 06:39N 43°53' W 006°19'210.7
2017-Apr-13 06:26N 43°53' W 006°16'510.6
2017-Apr-13 06:00N 43°54' W 006°09'510.7
2017-Apr-13 05:29N 43°54' W 006°02'610.8
2017-Apr-13 04:59N 43°55' W 005°54'510.8
2017-Apr-13 04:30N 43°56' W 005°47'510.8
2017-Apr-13 04:00N 43°57' W 005°40'610.9
2017-Apr-13 03:29N 43°57' W 005°32'510.7
2017-Apr-13 03:00N 43°58' W 005°25'610.6
2017-Apr-13 02:29N 43°59' W 005°18'610.7
2017-Apr-13 01:57N 43°60' W 005°10'510.8
2017-Apr-13 01:30N 44°00' W 005°03'710.3
2017-Apr-13 00:49N 44°01' W 004°53'7210.8
2017-Apr-12 18:11N 44°08' W 003°14'210.7
2017-Apr-12 17:59N 44°08' W 003°11'511.0
2017-Apr-12 17:30N 44°09' W 003°04'611.1
2017-Apr-12 17:00N 44°10' W 002°56'611.2
2017-Apr-12 16:31N 44°10' W 002°48'611.1
2017-Apr-12 16:00N 44°11' W 002°41'611.2
2017-Apr-12 15:28N 44°11' W 002°32'510.7
2017-Apr-12 15:00N 44°12' W 002°26'510.8
2017-Apr-12 14:30N 44°12' W 002°18'7 6.8
2017-Apr-12 13:30N 44°13' W 002°09'3 5.9
2017-Apr-12 13:00N 44°13' W 002°04'2 4.5
2017-Apr-12 12:30N 44°13' W 002°01'1 1.7
2017-Apr-12 12:00N 44°13' W 002°00'3 6.1
2017-Apr-12 11:30N 44°13' W 001°56'2 4.8
2017-Apr-12 11:00N 44°13' W 001°52'1 1.1
2017-Apr-12 10:30N 44°13' W 001°52'6 3.6
2017-Apr-12 08:49N 44°13' W 001°43'2 5.3
2017-Apr-12 08:29N 44°13' W 001°41'4 4.6
2017-Apr-12 07:32N 44°13' W 001°35'0 0.1
2017-Apr-12 07:26N 44°13' W 001°35'3 6.8
2017-Apr-12 06:59N 44°13' W 001°30'3 5.7
2017-Apr-12 06:28N 44°13' W 001°26'2 4.6
2017-Apr-12 05:59N 44°13' W 001°23'2 3.2
2017-Apr-12 05:30N 44°14' W 001°22'510.1
2017-Apr-12 05:00N 44°19' W 001°22'510.1
2017-Apr-12 04:30N 44°24' W 001°22'5 9.1
2017-Apr-12 04:00N 44°29' W 001°22'3 5.1
2017-Apr-12 03:30N 44°29' W 001°26'1 1.2
2017-Apr-12 03:00N 44°29' W 001°26'3 5.7
2017-Apr-12 02:31N 44°29' W 001°30'3 5.2
2017-Apr-12 02:00N 44°29' W 001°34'1 2.5
2017-Apr-12 01:30N 44°29' W 001°36'2 4.1
2017-Apr-12 01:00N 44°29' W 001°39'3 6.3
2017-Apr-12 00:30N 44°29' W 001°43'1 1.9
2017-Apr-12 00:00N 44°29' W 001°44'2 3.9
2017-Apr-11 23:31N 44°29' W 001°47'3 5.6
2017-Apr-11 23:01N 44°29' W 001°51'1 1.5
2017-Apr-11 22:30N 44°29' W 001°52'3 5.1
2017-Apr-11 22:00N 44°29' W 001°56'3 6.2
2017-Apr-11 21:28N 44°29' W 002°00'1 1.2
2017-Apr-11 21:00N 44°29' W 002°01'2 4.3
2017-Apr-11 20:31N 44°29' W 002°04'3 6.4
2017-Apr-11 20:00N 44°29' W 002°09'0 0.3
2017-Apr-11 19:31N 44°29' W 002°09'3 5.6
2017-Apr-11 19:00N 44°31' W 002°10'510.3
2017-Apr-11 18:30N 44°36' W 002°13'510.4
2017-Apr-11 18:00N 44°41' W 002°16'510.4
2017-Apr-11 17:30N 44°46' W 002°19'510.4
2017-Apr-11 17:00N 44°50' W 002°23'510.3
2017-Apr-11 16:28N 44°55' W 002°26'510.2
2017-Apr-11 16:00N 44°60' W 002°29'1 2.9
2017-Apr-11 15:30N 45°01' W 002°29'3 4.6
2017-Apr-11 14:54N 45°01' W 002°25'2 5.9
2017-Apr-11 14:30N 45°01' W 002°22'4 3.7
2017-Apr-11 13:29N 45°01' W 002°17'3 5.7
2017-Apr-11 13:00N 45°01' W 002°13'1 1.8
2017-Apr-11 12:26N 45°01' W 002°11'4 5.1
2017-Apr-11 11:37N 45°01' W 002°06'1 9.0
2017-Apr-11 11:30N 45°01' W 002°04'13 4.1
2017-Apr-11 08:25N 45°01' W 001°46'2 5.6
2017-Apr-11 08:00N 45°01' W 001°43'3 5.9
2017-Apr-11 07:30N 45°01' W 001°39'3 6.0
2017-Apr-11 07:00N 45°01' W 001°35'2 5.0
2017-Apr-11 06:30N 45°01' W 001°31'3 5.1
2017-Apr-11 05:58N 45°01' W 001°27'2 3.8
2017-Apr-11 05:30N 45°01' W 001°25'2 3.7
2017-Apr-11 05:00N 45°00' W 001°22'5 9.5
2017-Apr-11 04:31N 44°56' W 001°22'3 5.5
2017-Apr-11 04:00N 44°53' W 001°22'3 5.7
2017-Apr-11 03:30N 44°53' W 001°26'2 3.5
2017-Apr-11 03:00N 44°53' W 001°29'2 3.2
2017-Apr-11 02:29N 44°53' W 001°31'2 5.2
2017-Apr-11 02:00N 44°53' W 001°35'3 5.9
2017-Apr-11 01:30N 44°53' W 001°39'2 4.1
2017-Apr-11 00:59N 44°53' W 001°42'1 2.2
2017-Apr-11 00:30N 44°53' W 001°43'3 5.5
2017-Apr-11 00:00N 44°53' W 001°47'3 5.0
2017-Apr-10 23:25N 44°53' W 001°51'3 4.7
2017-Apr-10 22:48N 44°53' W 001°55'5 4.1
2017-Apr-10 21:34N 44°53' W 002°03'1 8.5
2017-Apr-10 21:27N 44°53' W 002°04'3 4.3
2017-Apr-10 20:44N 44°53' W 002°08'0 0.5
2017-Apr-10 20:29N 44°53' W 002°09'3 6.1
2017-Apr-10 20:00N 44°53' W 002°13'2 3.5
2017-Apr-10 19:25N 44°53' W 002°16'1 2.4
2017-Apr-10 19:00N 44°53' W 002°17'4 7.7
2017-Apr-10 18:30N 44°50' W 002°14'5 9.5
2017-Apr-10 18:00N 44°46' W 002°10'5 9.0
2017-Apr-10 17:30N 44°42' W 002°08'5 9.5
2017-Apr-10 17:00N 44°37' W 002°08'0 0.7
2017-Apr-10 16:31N 44°37' W 002°08'3 6.3
2017-Apr-10 16:00N 44°37' W 002°04'2 4.7
2017-Apr-10 15:30N 44°37' W 002°01'1 1.6
2017-Apr-10 15:00N 44°37' W 001°60'6 4.5
2017-Apr-10 13:44N 44°37' W 001°51'1 5.1
2017-Apr-10 13:30N 44°37' W 001°50'2 3.6
2017-Apr-10 13:00N 44°37' W 001°47'3 5.3
2017-Apr-10 12:26N 44°37' W 001°43'5 4.6
2017-Apr-10 11:21N 44°37' W 001°36'1 3.1
2017-Apr-10 11:00N 44°37' W 001°35'3 6.1
2017-Apr-10 10:30N 44°37' W 001°30'2 4.9
2017-Apr-10 10:00N 44°37' W 001°27'2 3.7
2017-Apr-10 09:30N 44°37' W 001°24'2 3.2
2017-Apr-10 09:00N 44°37' W 001°22'510.1
2017-Apr-10 08:30N 44°31' W 001°22'510.1
2017-Apr-10 08:00N 44°26' W 001°22'510.0
2017-Apr-10 07:30N 44°21' W 001°22'2 4.0
2017-Apr-10 07:00N 44°21' W 001°25'2 4.9
2017-Apr-10 06:30N 44°21' W 001°28'2 4.4
2017-Apr-10 06:00N 44°21' W 001°31'2 5.0
2017-Apr-10 05:31N 44°21' W 001°35'3 5.8
2017-Apr-10 05:00N 44°21' W 001°39'2 3.1
2017-Apr-10 04:30N 44°21' W 001°41'2 3.2
2017-Apr-10 04:00N 44°21' W 001°43'3 5.7
2017-Apr-10 03:30N 44°21' W 001°47'3 5.9
2017-Apr-10 03:00N 44°21' W 001°51'2 3.3
2017-Apr-10 02:31N 44°21' W 001°54'1 3.0
2017-Apr-10 02:00N 44°21' W 001°56'3 6.0
2017-Apr-10 01:31N 44°21' W 001°60'3 5.2
2017-Apr-10 01:01N 44°21' W 002°04'1 1.3
2017-Apr-10 00:31N 44°21' W 002°04'3 5.6
2017-Apr-10 00:01N 44°21' W 002°08'3 5.4
2017-Apr-09 23:30N 44°21' W 002°12'0 0.9
2017-Apr-09 23:01N 44°21' W 002°12'510.3
2017-Apr-09 22:30N 44°15' W 002°12'510.5
2017-Apr-09 22:01N 44°10' W 002°12'510.3
2017-Apr-09 21:31N 44°05' W 002°13'0 1.0
2017-Apr-09 21:00N 44°05' W 002°12'510.7
2017-Apr-09 20:31N 44°05' W 002°05'1 2.3
2017-Apr-09 20:01N 44°05' W 002°03'2 4.0
2017-Apr-09 19:30N 44°05' W 002°00'3 6.0
2017-Apr-09 19:01N 44°05' W 001°56'3 5.7
2017-Apr-09 18:30N 44°05' W 001°52'2 4.8
2017-Apr-09 18:01N 44°05' W 001°49'1 2.8
2017-Apr-09 17:31N 44°05' W 001°47'2 4.9
2017-Apr-09 17:00N 44°05' W 001°43'3 6.3
2017-Apr-09 16:30N 44°05' W 001°39'2 5.0
2017-Apr-09 16:01N 44°05' W 001°36'2 3.6
2017-Apr-09 15:30N 44°05' W 001°33'2 3.8
2017-Apr-09 15:01N 44°05' W 001°30'6 5.8
2017-Apr-09 14:00N 44°05' W 001°22'4 7.7
2017-Apr-09 13:30N 44°02' W 001°26'510.2
2017-Apr-09 13:00N 43°58' W 001°30'510.4
2017-Apr-09 12:30N 43°54' W 001°35'3 5.6
2017-Apr-09 12:01N 43°52' W 001°38'3 6.2
2017-Apr-09 11:30N 43°49' W 001°38'2 3.4
2017-Apr-09 11:00N 43°47' W 001°37'1 2.6
2017-Apr-09 10:30N 43°46' W 001°38'3 6.0
2017-Apr-09 10:00N 43°43' W 001°38'3 5.9
2017-Apr-09 09:30N 43°40' W 001°38'2 3.1
2017-Apr-09 09:00N 43°38' W 001°38'2 4.1
2017-Apr-09 08:30N 43°36' W 001°37'2 4.7
2017-Apr-09 08:00N 43°34' W 001°38'3 6.0
2017-Apr-09 07:31N 43°31' W 001°38'3 6.1
2017-Apr-09 07:00N 43°28' W 001°38'2 3.5
2017-Apr-09 06:31N 43°26' W 001°38'4 7.4
2017-Apr-09 06:00N 43°26' W 001°43'5 8.9
2017-Apr-09 05:30N 43°25' W 001°49'2 4.2
2017-Apr-09 05:00N 43°27' W 001°49'1 2.8
2017-Apr-09 04:30N 43°28' W 001°49'3 4.6
2017-Apr-09 03:58N 43°31' W 001°49'3 6.1
2017-Apr-09 03:28N 43°34' W 001°49'1 2.9
2017-Apr-09 03:01N 43°35' W 001°49'2 3.3
2017-Apr-09 02:30N 43°37' W 001°49'3 5.9
2017-Apr-09 02:00N 43°40' W 001°49'1 2.6
2017-Apr-09 01:31N 43°41' W 001°49'2 3.6
2017-Apr-09 01:01N 43°43' W 001°49'3 5.4
2017-Apr-09 00:28N 43°46' W 001°49'3 3.0
2017-Apr-08 23:24N 43°49' W 001°49'42 2.6
2017-Apr-08 07:18N 43°26' W 002°37'1 4.1
2017-Apr-08 06:58N 43°26' W 002°39'2 0.7
2017-Apr-08 03:44N 43°27' W 002°42'1 4.0
2017-Apr-08 03:23N 43°27' W 002°40'2 3.9
2017-Apr-08 02:59N 43°26' W 002°38'25 3.8
2017-Apr-07 20:29N 43°24' W 002°05'2 4.3
2017-Apr-07 20:00N 43°23' W 002°02'1 2.9
2017-Apr-07 19:30N 43°23' W 001°60'0 0.2
2017-Apr-07 19:00N 43°23' W 001°60'1 2.9
2017-Apr-07 18:30N 43°22' W 002°02'2 3.7
2017-Apr-07 18:00N 43°21' W 002°04'3 6.7
2017-Apr-07 17:30N 43°23' W 001°60'1 2.5
2017-Apr-07 17:00N 43°22' W 002°01'2 4.2
2017-Apr-07 16:28N 43°21' W 002°04'3 6.1
2017-Apr-07 15:56N 43°20' W 002°00'1 2.6
2017-Apr-07 15:31N 43°21' W 002°00'1 2.8
2017-Apr-07 15:00N 43°23' W 002°00'8 4.7
2017-Apr-07 13:19N 43°31' W 002°00'  

Dump ship's entire track history